createdAt,value
2019-05-23T00:00:12.159Z,95.74
2019-05-23T00:01:12.170Z,96.22
2019-05-23T00:02:12.092Z,96.03
2019-05-23T00:03:12.032Z,96.17
2019-05-23T00:04:12.056Z,96.26
2019-05-23T00:05:11.973Z,96.41
2019-05-23T00:06:11.910Z,95.65
2019-05-23T00:07:11.883Z,96.45
2019-05-23T00:08:11.835Z,96.26
2019-05-23T00:09:11.822Z,96.17
2019-05-23T00:10:11.774Z,96.17
2019-05-23T00:11:11.733Z,96.26
2019-05-23T00:12:11.681Z,96.73
2019-05-23T00:13:11.641Z,96.08
2019-05-23T00:14:11.582Z,96.26
2019-05-23T00:15:11.570Z,96.73
2019-05-23T00:16:11.526Z,96.73
2019-05-23T00:17:11.552Z,96.50
2019-05-23T00:18:11.453Z,96.88
2019-05-23T00:19:11.385Z,96.41
2019-05-23T00:20:11.372Z,96.50
2019-05-23T00:21:11.330Z,96.12
2019-05-23T00:22:11.273Z,96.41
2019-05-23T00:23:11.241Z,96.69
2019-05-23T00:24:11.199Z,96.69
2019-05-23T00:25:11.177Z,96.78
2019-05-23T00:26:11.117Z,97.07
2019-05-23T00:27:11.074Z,97.07
2019-05-23T00:28:11.033Z,97.17
2019-05-23T00:29:11.066Z,96.88
2019-05-23T00:30:10.936Z,96.97
2019-05-23T00:31:10.939Z,96.97
2019-05-23T00:32:10.878Z,96.88
2019-05-23T00:33:10.828Z,96.69
2019-05-23T00:34:10.794Z,96.78
2019-05-23T00:35:10.744Z,96.78
2019-05-23T00:36:10.733Z,96.88
2019-05-23T00:37:10.682Z,96.88
2019-05-23T00:38:10.633Z,97.26
2019-05-23T00:39:10.646Z,96.97
2019-05-23T00:40:10.543Z,97.26
2019-05-23T00:41:10.525Z,97.26
2019-05-23T00:42:10.489Z,96.97
2019-05-23T00:43:10.424Z,97.17
2019-05-23T00:44:10.459Z,97.21
2019-05-23T00:45:10.444Z,97.12
2019-05-23T00:46:10.334Z,97.02
2019-05-23T00:47:10.283Z,96.92
2019-05-23T00:48:10.237Z,97.31
2019-05-23T00:49:10.178Z,97.17
2019-05-23T00:50:10.152Z,97.07
2019-05-23T00:51:10.107Z,96.97
2019-05-23T00:52:10.055Z,97.26
2019-05-23T00:53:10.017Z,97.26
2019-05-23T00:54:09.992Z,97.17
2019-05-23T00:55:09.945Z,97.26
2019-05-23T00:56:09.907Z,97.07
2019-05-23T00:57:09.850Z,97.07
2019-05-23T00:58:09.824Z,97.26
2019-05-23T00:59:24.471Z,96.88
2019-05-23T01:00:09.743Z,96.92
2019-05-23T01:01:09.695Z,96.92
2019-05-23T01:02:09.657Z,96.83
2019-05-23T01:03:09.610Z,96.92
2019-05-23T01:04:09.602Z,97.02
2019-05-23T01:05:09.555Z,97.69
2019-05-23T01:06:09.492Z,96.92
2019-05-23T01:07:09.458Z,97.50
2019-05-23T01:08:09.417Z,97.21
2019-05-23T01:09:09.377Z,97.31
2019-05-23T01:10:09.324Z,96.83
2019-05-23T01:11:09.289Z,97.12
2019-05-23T01:12:09.251Z,97.64
2019-05-23T01:13:09.221Z,97.64
2019-05-23T01:14:09.169Z,97.26
2019-05-23T01:15:09.161Z,97.55
2019-05-23T01:16:09.088Z,97.26
2019-05-23T01:17:09.042Z,97.45
2019-05-23T01:18:09.027Z,97.17
2019-05-23T01:19:08.975Z,97.07
2019-05-23T01:20:08.928Z,96.97
2019-05-23T01:21:08.882Z,97.55
2019-05-23T01:22:08.864Z,97.45
2019-05-23T01:23:08.806Z,97.17
2019-05-23T01:24:08.795Z,97.17
2019-05-23T01:25:08.728Z,97.45
2019-05-23T01:26:08.679Z,96.97
2019-05-23T01:27:08.653Z,97.55
2019-05-23T01:28:08.614Z,96.88
2019-05-23T01:29:08.569Z,97.45
2019-05-23T01:30:08.527Z,97.45
2019-05-23T01:31:08.485Z,97.17
2019-05-23T01:32:08.454Z,97.36
2019-05-23T01:33:08.419Z,97.26
2019-05-23T01:34:08.368Z,97.36
2019-05-23T01:35:08.321Z,96.97
2019-05-23T01:36:08.290Z,96.88
2019-05-23T01:37:08.277Z,97.55
2019-05-23T01:38:08.207Z,97.45
2019-05-23T01:39:08.165Z,97.07
2019-05-23T01:40:08.153Z,97.64
2019-05-23T01:41:08.076Z,97.64
2019-05-23T01:42:08.047Z,97.55
2019-05-23T01:43:08.010Z,97.07
2019-05-23T01:44:07.967Z,96.93
2019-05-23T01:45:07.926Z,97.12
2019-05-23T01:46:07.883Z,96.83
2019-05-23T01:47:07.839Z,97.07
2019-05-23T01:48:07.814Z,97.12
2019-05-23T01:49:07.760Z,96.97
2019-05-23T01:50:07.738Z,97.22
2019-05-23T01:51:07.695Z,97.07
2019-05-23T01:52:07.645Z,97.07
2019-05-23T01:53:07.602Z,97.07
2019-05-23T01:54:07.570Z,97.17
2019-05-23T01:55:07.546Z,97.36
2019-05-23T01:56:07.481Z,97.17
2019-05-23T01:57:07.457Z,97.07
2019-05-23T01:58:07.415Z,97.07
2019-05-23T01:59:07.371Z,97.36
2019-05-23T02:00:10.509Z,97.26
2019-05-23T02:01:07.275Z,97.17
2019-05-23T02:02:07.262Z,97.02
2019-05-23T02:03:07.209Z,97.21
2019-05-23T02:04:07.169Z,97.31
2019-05-23T02:05:07.131Z,97.02
2019-05-23T02:06:07.089Z,97.02
2019-05-23T02:07:07.043Z,97.21
2019-05-23T02:08:07.012Z,96.92
2019-05-23T02:09:06.962Z,96.92
2019-05-23T02:10:06.925Z,96.92
2019-05-23T02:11:06.882Z,97.02
2019-05-23T02:12:06.849Z,97.02
2019-05-23T02:13:06.813Z,97.02
2019-05-23T02:14:06.764Z,97.31
2019-05-23T02:15:06.734Z,97.02
2019-05-23T02:16:06.703Z,97.02
2019-05-23T02:17:06.644Z,97.21
2019-05-23T02:18:06.619Z,97.12
2019-05-23T02:19:06.565Z,97.31
2019-05-23T02:20:06.533Z,97.21
2019-05-23T02:21:06.493Z,97.21
2019-05-23T02:22:06.440Z,97.12
2019-05-23T02:23:06.402Z,97.02
2019-05-23T02:24:06.373Z,97.02
2019-05-23T02:25:06.328Z,97.21
2019-05-23T02:26:06.293Z,96.92
2019-05-23T02:27:06.278Z,96.83
2019-05-23T02:28:06.201Z,97.54
2019-05-23T02:29:06.160Z,97.35
2019-05-23T02:30:06.125Z,97.16
2019-05-23T02:31:06.086Z,97.26
2019-05-23T02:32:06.067Z,97.26
2019-05-23T02:33:06.000Z,97.16
2019-05-23T02:34:05.970Z,97.45
2019-05-23T02:35:05.949Z,96.88
2019-05-23T02:36:05.900Z,96.88
2019-05-23T02:37:05.893Z,96.97
2019-05-23T02:38:05.810Z,97.54
2019-05-23T02:39:05.765Z,97.54
2019-05-23T02:40:05.725Z,97.54
2019-05-23T02:41:05.683Z,97.35
2019-05-23T02:42:05.641Z,97.07
2019-05-23T02:43:05.603Z,97.35
2019-05-23T02:44:05.568Z,97.07
2019-05-23T02:45:05.532Z,97.45
2019-05-23T02:46:05.502Z,97.07
2019-05-23T02:47:05.448Z,97.69
2019-05-23T02:48:05.401Z,97.59
2019-05-23T02:49:05.370Z,97.50
2019-05-23T02:50:05.360Z,97.50
2019-05-23T02:51:05.286Z,96.92
2019-05-23T02:52:05.238Z,97.12
2019-05-23T02:53:05.215Z,97.02
2019-05-23T02:54:05.160Z,97.31
2019-05-23T02:55:05.120Z,97.02
2019-05-23T02:56:05.086Z,97.02
2019-05-23T02:57:05.109Z,97.21
2019-05-23T02:58:05.001Z,97.07
2019-05-23T02:59:04.959Z,96.97
2019-05-23T03:00:04.927Z,97.07
2019-05-23T03:01:04.881Z,97.26
2019-05-23T03:02:04.849Z,96.88
2019-05-23T03:03:04.810Z,96.88
2019-05-23T03:04:04.783Z,97.07
2019-05-23T03:05:04.720Z,96.78
2019-05-23T03:06:04.685Z,96.97
2019-05-23T03:07:04.646Z,97.26
2019-05-23T03:08:04.596Z,97.07
2019-05-23T03:09:04.568Z,97.26
2019-05-23T03:10:04.513Z,97.07
2019-05-23T03:11:04.604Z,96.97
2019-05-23T03:12:04.434Z,97.17
2019-05-23T03:13:04.401Z,97.26
2019-05-23T03:14:04.356Z,97.21
2019-05-23T03:15:04.355Z,97.12
2019-05-23T03:16:04.295Z,97.31
2019-05-23T03:17:04.237Z,97.31
2019-05-23T03:18:04.205Z,97.02
2019-05-23T03:19:04.166Z,97.12
2019-05-23T03:20:04.130Z,97.12
2019-05-23T03:21:04.087Z,97.21
2019-05-23T03:22:04.070Z,97.21
2019-05-23T03:23:04.004Z,97.21
2019-05-23T03:24:03.970Z,97.40
2019-05-23T03:25:03.946Z,96.73
2019-05-23T03:26:03.899Z,97.12
2019-05-23T03:27:03.833Z,96.97
2019-05-23T03:28:03.809Z,97.36
2019-05-23T03:29:03.773Z,96.78
2019-05-23T03:30:03.718Z,96.97
2019-05-23T03:31:27.103Z,97.17
2019-05-23T03:32:03.667Z,96.97
2019-05-23T03:33:03.598Z,96.88
2019-05-23T03:34:03.565Z,96.97
2019-05-23T03:35:03.511Z,97.17
2019-05-23T03:36:03.493Z,97.26
2019-05-23T03:37:03.457Z,96.59
2019-05-23T03:38:03.431Z,96.88
2019-05-23T03:39:03.359Z,97.07
2019-05-23T03:40:03.366Z,97.17
2019-05-23T03:41:03.348Z,97.02
2019-05-23T03:42:03.289Z,97.02
2019-05-23T03:43:03.200Z,97.02
2019-05-23T03:44:03.175Z,96.55
2019-05-23T03:45:03.178Z,96.64
2019-05-23T03:46:03.073Z,96.08
2019-05-23T03:47:03.031Z,96.08
2019-05-23T03:48:03.042Z,96.83
2019-05-23T03:49:02.960Z,95.98
2019-05-23T03:50:02.938Z,96.36
2019-05-23T03:51:02.869Z,96.45
2019-05-23T03:52:02.830Z,96.59
2019-05-23T03:53:02.786Z,95.93
2019-05-23T03:54:02.777Z,96.03
2019-05-23T03:55:02.713Z,96.31
2019-05-23T03:56:02.675Z,96.12
2019-05-23T03:57:02.633Z,95.93
2019-05-23T03:58:02.589Z,95.74
2019-05-23T03:59:02.566Z,95.74
2019-05-23T04:00:02.505Z,95.65
2019-05-23T04:01:02.477Z,95.84
2019-05-23T04:02:02.429Z,95.93
2019-05-23T04:03:02.406Z,96.12
2019-05-23T04:04:02.484Z,95.36
2019-05-23T04:05:02.339Z,95.27
2019-05-23T04:06:02.385Z,94.70
2019-05-23T04:07:02.303Z,94.46
2019-05-23T04:08:02.194Z,94.74
2019-05-23T04:09:02.151Z,94.56
2019-05-23T04:10:02.119Z,93.94
2019-05-23T04:11:02.084Z,94.13
2019-05-23T04:12:02.063Z,94.32
2019-05-23T04:13:01.985Z,93.56
2019-05-23T04:14:01.952Z,94.37
2019-05-23T04:15:01.920Z,94.65
2019-05-23T04:16:01.878Z,94.51
2019-05-23T04:17:01.832Z,94.42
2019-05-23T04:18:01.824Z,94.79
2019-05-23T04:19:01.762Z,94.42
2019-05-23T04:20:01.709Z,94.98
2019-05-23T04:21:01.700Z,94.60
2019-05-23T04:22:01.728Z,94.93
2019-05-23T04:23:01.586Z,94.93
2019-05-23T04:24:01.555Z,94.93
2019-05-23T04:25:02.366Z,94.93
2019-05-23T04:26:01.481Z,94.74
2019-05-23T04:27:01.478Z,94.18
2019-05-23T04:28:01.408Z,94.60
2019-05-23T04:29:01.350Z,94.23
2019-05-23T04:30:01.363Z,94.51
2019-05-23T04:31:01.281Z,94.51
2019-05-23T04:32:08.059Z,94.42
2019-05-23T04:33:01.204Z,93.84
2019-05-23T04:34:01.176Z,92.94
2019-05-23T04:35:01.125Z,92.46
2019-05-23T04:36:01.090Z,92.08
2019-05-23T04:37:01.039Z,92.08
2019-05-23T04:38:01.007Z,91.94
2019-05-23T04:39:00.963Z,94.79
2019-05-23T04:40:00.918Z,92.75
2019-05-23T04:41:00.882Z,92.99
2019-05-23T04:42:00.898Z,93.74
2019-05-23T04:43:00.807Z,94.08
2019-05-23T04:44:00.775Z,96.17
2019-05-23T04:45:00.743Z,97.70
2019-05-23T04:46:00.692Z,99.99
2019-05-23T04:47:00.664Z,99.99
2019-05-23T04:48:00.617Z,99.99
2019-05-23T04:49:00.576Z,99.99
2019-05-23T04:50:00.557Z,99.99
2019-05-23T04:51:00.758Z,99.99
2019-05-23T04:52:00.598Z,99.99
2019-05-23T04:53:00.484Z,99.99
2019-05-23T04:54:00.441Z,99.99
2019-05-23T04:55:00.405Z,99.99
2019-05-23T04:56:00.317Z,99.99
2019-05-23T04:57:00.275Z,99.99
2019-05-23T04:58:03.887Z,99.99
2019-05-23T04:59:00.242Z,99.99
2019-05-23T05:00:00.176Z,99.99
2019-05-23T05:01:00.135Z,99.99
2019-05-23T05:02:00.101Z,99.99
2019-05-23T05:03:00.062Z,99.99
2019-05-23T05:04:00.031Z,99.99
2019-05-23T05:05:00.008Z,99.99
2019-05-23T05:05:59.957Z,99.99
2019-05-23T05:06:59.924Z,99.99
2019-05-23T05:07:59.886Z,99.99
2019-05-23T05:08:59.848Z,99.99
2019-05-23T05:09:59.821Z,99.99
2019-05-23T05:10:59.787Z,99.99
2019-05-23T05:11:59.744Z,99.99
2019-05-23T05:12:59.706Z,99.99
2019-05-23T05:13:59.671Z,99.99
2019-05-23T05:14:59.643Z,99.99
2019-05-23T05:15:59.625Z,99.99
2019-05-23T05:16:59.582Z,99.99
2019-05-23T05:17:59.541Z,99.99
2019-05-23T05:18:59.510Z,99.99
2019-05-23T05:19:59.474Z,99.99
2019-05-23T05:20:59.447Z,99.99
2019-05-23T05:21:59.415Z,99.99
2019-05-23T05:22:59.392Z,99.99
2019-05-23T05:23:59.430Z,99.99
2019-05-23T05:24:59.326Z,99.99
2019-05-23T05:25:59.301Z,99.99
2019-05-23T05:26:59.249Z,99.99
2019-05-23T05:27:59.242Z,99.99
2019-05-23T05:28:59.207Z,99.99
2019-05-23T05:29:59.182Z,99.99
2019-05-23T05:30:59.169Z,99.99
2019-05-23T05:32:03.394Z,99.99
2019-05-23T05:32:59.087Z,99.99
2019-05-23T05:33:59.055Z,99.99
2019-05-23T05:34:59.114Z,99.99
2019-05-23T05:35:59.009Z,99.99
2019-05-23T05:36:58.945Z,99.99
2019-05-23T05:37:58.916Z,99.99
2019-05-23T05:38:58.907Z,99.99
2019-05-23T05:39:58.887Z,99.99
2019-05-23T05:40:58.830Z,99.99
2019-05-23T05:41:58.830Z,99.99
2019-05-23T05:42:58.771Z,99.99
2019-05-23T05:43:58.727Z,99.99
2019-05-23T05:44:58.691Z,99.99
2019-05-23T05:45:58.671Z,99.99
2019-05-23T05:46:58.622Z,99.99
2019-05-23T05:47:58.588Z,99.99
2019-05-23T05:48:58.556Z,99.99
2019-05-23T05:49:58.539Z,99.99
2019-05-23T05:50:58.508Z,99.99
2019-05-23T05:51:58.465Z,99.99
2019-05-23T05:52:58.447Z,99.99
2019-05-23T05:53:58.437Z,99.99
2019-05-23T05:55:00.927Z,99.99
2019-05-23T05:55:58.415Z,99.99
2019-05-23T05:56:58.302Z,99.99
2019-05-23T05:57:58.275Z,99.99
2019-05-23T05:58:58.250Z,99.99
2019-05-23T05:59:58.193Z,99.99
2019-05-23T06:00:58.180Z,99.99
2019-05-23T06:01:58.136Z,99.99
2019-05-23T06:03:04.689Z,99.99
2019-05-23T06:03:58.072Z,99.99
2019-05-23T06:04:58.044Z,99.99
2019-05-23T06:05:57.997Z,99.99
2019-05-23T06:06:57.959Z,99.99
2019-05-23T06:07:57.926Z,99.99
2019-05-23T06:08:57.937Z,99.99
2019-05-23T06:09:57.890Z,99.99
2019-05-23T06:10:57.843Z,99.99
2019-05-23T06:11:57.789Z,99.99
2019-05-23T06:12:57.758Z,99.99
2019-05-23T06:13:57.722Z,99.99
2019-05-23T06:14:57.705Z,99.99
2019-05-23T06:15:57.656Z,99.99
2019-05-23T06:16:57.632Z,99.99
2019-05-23T06:17:57.587Z,99.99
2019-05-23T06:18:57.557Z,99.99
2019-05-23T06:19:57.540Z,99.99
2019-05-23T06:20:57.546Z,99.99
2019-05-23T06:21:57.456Z,99.99
2019-05-23T06:22:57.457Z,99.99
2019-05-23T06:23:57.392Z,99.99
2019-05-23T06:24:58.220Z,99.99
2019-05-23T06:25:57.318Z,99.99
2019-05-23T06:26:57.298Z,99.99
2019-05-23T06:27:57.256Z,99.99
2019-05-23T06:28:57.219Z,99.99
2019-05-23T06:29:57.211Z,99.99
2019-05-23T06:30:57.170Z,99.99
2019-05-23T06:31:57.115Z,99.99
2019-05-23T06:32:57.090Z,99.99
2019-05-23T06:33:57.084Z,99.99
2019-05-23T06:34:57.021Z,99.99
2019-05-23T06:35:56.987Z,99.99
2019-05-23T06:36:56.953Z,99.99
2019-05-23T06:37:57.011Z,99.99
2019-05-23T06:38:56.887Z,99.99
2019-05-23T06:39:56.880Z,99.99
2019-05-23T06:40:56.863Z,99.99
2019-05-23T06:41:56.795Z,99.99
2019-05-23T06:42:56.752Z,99.99
2019-05-23T06:43:56.731Z,99.99
2019-05-23T06:44:56.682Z,99.99
2019-05-23T06:45:56.666Z,99.99
2019-05-23T06:46:56.628Z,99.99
2019-05-23T06:47:56.602Z,99.99
2019-05-23T06:48:56.566Z,99.99
2019-05-23T06:49:56.530Z,99.99
2019-05-23T06:50:56.496Z,99.99
2019-05-23T06:51:56.465Z,99.99
2019-05-23T06:52:56.416Z,99.99
2019-05-23T06:53:56.404Z,99.99
2019-05-23T06:54:59.624Z,99.99
2019-05-23T06:55:56.325Z,99.99
2019-05-23T06:56:56.312Z,99.73
2019-05-23T06:57:56.264Z,99.99
2019-05-23T06:58:56.283Z,98.91
2019-05-23T06:59:56.323Z,98.24
2019-05-23T07:00:56.206Z,97.19
2019-05-23T07:01:56.145Z,99.05
2019-05-23T07:02:56.102Z,99.49
2019-05-23T07:03:56.085Z,99.34
2019-05-23T07:04:56.046Z,98.58
2019-05-23T07:05:56.023Z,99.99
2019-05-23T07:06:56.011Z,96.99
2019-05-23T07:07:55.998Z,96.37
2019-05-23T07:08:55.956Z,96.13
2019-05-23T07:09:56.045Z,94.49
2019-05-23T07:10:55.897Z,92.23
2019-05-23T07:11:55.845Z,91.46
2019-05-23T07:12:55.817Z,91.07
2019-05-23T07:13:55.787Z,86.69
2019-05-23T07:14:55.766Z,86.65
2019-05-23T07:15:55.772Z,85.93
2019-05-23T07:16:55.733Z,84.97
2019-05-23T07:17:55.718Z,88.18
2019-05-23T07:18:55.655Z,84.91
2019-05-23T07:19:55.610Z,84.05
2019-05-23T07:20:55.590Z,84.43
2019-05-23T07:21:55.582Z,83.80
2019-05-23T07:22:55.568Z,80.81
2019-05-23T07:23:55.534Z,79.85
2019-05-23T07:24:58.721Z,80.27
2019-05-23T07:25:55.510Z,81.68
2019-05-23T07:26:55.450Z,82.20
2019-05-23T07:27:55.415Z,78.98
2019-05-23T07:28:55.404Z,77.96
2019-05-23T07:29:55.382Z,79.60
2019-05-23T07:30:55.379Z,79.60
2019-05-23T07:31:55.354Z,78.08
2019-05-23T07:32:55.306Z,80.11
2019-05-23T07:34:01.935Z,82.61
2019-05-23T07:34:55.262Z,82.56
2019-05-23T07:35:55.230Z,82.27
2019-05-23T07:36:55.197Z,83.51
2019-05-23T07:37:55.181Z,79.50
2019-05-23T07:38:55.168Z,78.77
2019-05-23T07:39:55.134Z,75.24
2019-05-23T07:40:55.091Z,74.24
2019-05-23T07:41:55.080Z,77.23
2019-05-23T07:42:55.050Z,75.88
2019-05-23T07:43:55.093Z,77.53
2019-05-23T07:44:54.990Z,76.48
2019-05-23T07:45:54.986Z,77.46
2019-05-23T07:46:54.949Z,81.16
2019-05-23T07:47:54.918Z,82.64
2019-05-23T07:48:54.914Z,77.71
2019-05-23T07:49:54.908Z,77.42
2019-05-23T07:50:54.909Z,76.30
2019-05-23T07:51:54.835Z,72.41
2019-05-23T07:52:54.825Z,75.55
2019-05-23T07:53:54.819Z,75.23
2019-05-23T07:54:54.923Z,75.36
2019-05-23T07:55:54.763Z,75.99
2019-05-23T07:56:54.766Z,77.40
2019-05-23T07:57:54.697Z,79.48
2019-05-23T07:58:54.708Z,81.25
2019-05-23T07:59:54.682Z,79.48
2019-05-23T08:00:54.826Z,78.85
2019-05-23T08:01:54.640Z,77.15
2019-05-23T08:02:54.591Z,76.51
2019-05-23T08:03:54.548Z,73.78
2019-05-23T08:04:54.523Z,74.01
2019-05-23T08:05:54.499Z,74.99
2019-05-23T08:06:54.465Z,75.67
2019-05-23T08:07:54.541Z,76.80
2019-05-23T08:08:54.423Z,76.61
2019-05-23T08:09:54.403Z,78.46
2019-05-23T08:10:54.572Z,79.38
2019-05-23T08:11:54.375Z,78.08
2019-05-23T08:12:54.346Z,76.48
2019-05-23T08:13:54.302Z,77.17
2019-05-23T08:14:54.348Z,77.44
2019-05-23T08:15:54.261Z,76.55
2019-05-23T08:16:54.253Z,74.03
2019-05-23T08:17:54.274Z,76.25
2019-05-23T08:18:54.185Z,77.34
2019-05-23T08:19:54.158Z,74.74
2019-05-23T08:20:54.149Z,75.55
2019-05-23T08:21:54.127Z,75.23
2019-05-23T08:22:54.101Z,74.97
2019-05-23T08:23:54.147Z,73.33
2019-05-23T08:24:54.074Z,75.23
2019-05-23T08:25:54.031Z,74.01
2019-05-23T08:26:54.020Z,76.03
2019-05-23T08:27:54.042Z,76.67
2019-05-23T08:29:23.773Z,74.84
2019-05-23T08:29:53.957Z,76.23
2019-05-23T08:30:53.917Z,74.20
2019-05-23T08:31:53.889Z,72.14
2019-05-23T08:32:53.862Z,73.55
2019-05-23T08:33:53.814Z,73.39
2019-05-23T08:34:53.830Z,72.56
2019-05-23T08:35:53.780Z,72.27
2019-05-23T08:36:53.768Z,72.89
2019-05-23T08:37:53.764Z,70.38
2019-05-23T08:38:53.736Z,68.87
2019-05-23T08:39:53.705Z,66.24
2019-05-23T08:40:53.689Z,70.38
2019-05-23T08:41:53.686Z,69.74
2019-05-23T08:42:53.620Z,67.75
2019-05-23T08:43:53.585Z,66.01
2019-05-23T08:44:53.585Z,63.40
2019-05-23T08:45:53.559Z,65.17
2019-05-23T08:46:53.534Z,63.40
2019-05-23T08:47:53.532Z,64.82
2019-05-23T08:48:53.479Z,66.20
2019-05-23T08:49:53.498Z,65.17
2019-05-23T08:50:53.448Z,62.66
2019-05-23T08:51:53.438Z,63.56
2019-05-23T08:52:53.423Z,62.57
2019-05-23T08:53:53.382Z,64.37
2019-05-23T08:54:53.389Z,65.82
2019-05-23T08:55:53.352Z,67.23
2019-05-23T08:56:53.293Z,68.26
2019-05-23T08:57:53.272Z,67.00
2019-05-23T08:58:53.235Z,64.98
2019-05-23T08:59:53.243Z,64.82
2019-05-23T09:00:53.219Z,66.14
2019-05-23T09:01:53.191Z,61.73
2019-05-23T09:02:53.148Z,61.76
2019-05-23T09:03:53.138Z,62.34
2019-05-23T09:05:04.437Z,59.41
2019-05-23T09:05:53.101Z,59.73
2019-05-23T09:06:53.073Z,59.99
2019-05-23T09:07:53.062Z,61.12
2019-05-23T09:08:53.014Z,61.60
2019-05-23T09:09:53.073Z,63.47
2019-05-23T09:10:52.971Z,60.41
2019-05-23T09:11:52.950Z,61.60
2019-05-23T09:12:52.929Z,63.02
2019-05-23T09:13:52.904Z,62.15
2019-05-23T09:14:52.950Z,62.51
2019-05-23T09:15:53.649Z,63.12
2019-05-23T09:16:52.872Z,65.08
2019-05-23T09:17:54.272Z,63.73
2019-05-23T09:18:52.793Z,61.02
2019-05-23T09:19:52.813Z,60.19
2019-05-23T09:20:52.788Z,61.35
2019-05-23T09:21:57.545Z,61.16
2019-05-23T09:22:52.681Z,59.48
2019-05-23T09:23:52.711Z,57.75
2019-05-23T09:24:52.660Z,60.96
2019-05-23T09:25:52.632Z,59.55
2019-05-23T09:26:52.597Z,60.20
2019-05-23T09:27:52.567Z,62.03
2019-05-23T09:28:52.555Z,62.54
2019-05-23T09:29:52.523Z,61.48
2019-05-23T09:30:52.526Z,62.83
2019-05-23T09:31:52.556Z,63.24
2019-05-23T09:32:52.455Z,64.18
2019-05-23T09:33:52.456Z,60.71
2019-05-23T09:34:52.406Z,60.83
2019-05-23T09:35:52.392Z,62.57
2019-05-23T09:36:52.400Z,60.96
2019-05-23T09:37:52.348Z,63.79
2019-05-23T09:38:52.402Z,63.12
2019-05-23T09:39:52.295Z,62.66
2019-05-23T09:40:52.285Z,61.02
2019-05-23T09:41:52.235Z,61.02
2019-05-23T09:42:52.259Z,61.38
2019-05-23T09:43:52.256Z,59.42
2019-05-23T09:44:52.171Z,58.00
2019-05-23T09:45:52.144Z,58.03
2019-05-23T09:46:52.127Z,54.65
2019-05-23T09:47:52.110Z,53.71
2019-05-23T09:48:52.168Z,54.36
2019-05-23T09:49:55.106Z,51.97
2019-05-23T09:50:52.078Z,50.79
2019-05-23T09:51:55.725Z,50.91
2019-05-23T09:52:52.079Z,49.82
2019-05-23T09:53:52.011Z,51.68
2019-05-23T09:54:51.933Z,54.49
2019-05-23T09:55:51.898Z,54.55
2019-05-23T09:56:51.930Z,53.37
2019-05-23T09:57:51.842Z,53.39
2019-05-23T09:58:51.843Z,50.18
2019-05-23T09:59:51.849Z,48.25
2019-05-23T10:00:51.796Z,47.77
2019-05-23T10:01:51.780Z,49.19
2019-05-23T10:02:51.727Z,49.39
2019-05-23T10:03:51.822Z,51.15
2019-05-23T10:04:51.708Z,52.59
2019-05-23T10:05:51.839Z,51.37
2019-05-23T10:06:51.683Z,51.85
2019-05-23T10:07:51.604Z,51.07
2019-05-23T10:08:51.591Z,51.25
2019-05-23T10:09:51.627Z,53.01
2019-05-23T10:10:51.657Z,55.74
2019-05-23T10:11:51.560Z,55.38
2019-05-23T10:12:51.538Z,50.76
2019-05-23T10:13:51.617Z,49.41
2019-05-23T10:14:51.472Z,49.12
2019-05-23T10:15:51.445Z,51.27
2019-05-23T10:16:51.466Z,54.65
2019-05-23T10:17:51.398Z,54.17
2019-05-23T10:18:51.381Z,54.17
2019-05-23T10:19:51.338Z,53.81
2019-05-23T10:20:51.368Z,54.49
2019-05-23T10:21:51.291Z,53.69
2019-05-23T10:22:51.253Z,55.01
2019-05-23T10:23:51.231Z,55.18
2019-05-23T10:24:51.204Z,54.60
2019-05-23T10:25:51.230Z,55.66
2019-05-23T10:26:51.211Z,55.73
2019-05-23T10:27:51.146Z,55.76
2019-05-23T10:28:51.127Z,56.72
2019-05-23T10:29:51.131Z,55.68
2019-05-23T10:30:51.086Z,54.69
2019-05-23T10:31:51.032Z,54.14
2019-05-23T10:32:51.090Z,53.34
2019-05-23T10:33:51.059Z,52.95
2019-05-23T10:34:50.974Z,51.41
2019-05-23T10:36:00.620Z,50.74
2019-05-23T10:36:50.953Z,49.77
2019-05-23T10:37:50.895Z,52.09
2019-05-23T10:38:50.872Z,52.57
2019-05-23T10:39:51.370Z,52.01
2019-05-23T10:40:50.865Z,51.44
2019-05-23T10:41:50.831Z,50.86
2019-05-23T10:42:50.782Z,50.45
2019-05-23T10:43:50.807Z,52.19
2019-05-23T10:44:50.748Z,54.36
2019-05-23T10:45:50.695Z,54.39
2019-05-23T10:46:50.675Z,51.46
2019-05-23T10:47:50.642Z,52.23
2019-05-23T10:48:50.625Z,53.20
2019-05-23T10:49:50.671Z,55.13
2019-05-23T10:50:50.586Z,55.23
2019-05-23T10:51:50.653Z,54.65
2019-05-23T10:52:50.521Z,56.10
2019-05-23T10:53:50.517Z,54.39
2019-05-23T10:54:50.547Z,53.71
2019-05-23T10:55:50.457Z,53.52
2019-05-23T10:56:50.470Z,51.95
2019-05-23T10:57:50.419Z,54.77
2019-05-23T10:58:50.401Z,53.42
2019-05-23T10:59:50.359Z,53.01
2019-05-23T11:00:50.313Z,53.29
2019-05-23T11:01:50.312Z,55.24
2019-05-23T11:02:50.303Z,54.18
2019-05-23T11:03:50.257Z,55.31
2019-05-23T11:04:50.239Z,56.18
2019-05-23T11:05:50.217Z,55.41
2019-05-23T11:06:50.197Z,55.70
2019-05-23T11:07:50.160Z,54.64
2019-05-23T11:08:50.222Z,55.99
2019-05-23T11:09:50.139Z,57.39
2019-05-23T11:10:50.099Z,54.88
2019-05-23T11:11:50.052Z,54.43
2019-05-23T11:12:50.092Z,52.69
2019-05-23T11:13:50.010Z,52.62
2019-05-23T11:14:49.991Z,53.85
2019-05-23T11:15:49.977Z,54.05
2019-05-23T11:16:49.953Z,51.46
2019-05-23T11:17:53.458Z,52.89
2019-05-23T11:18:49.917Z,56.26
2019-05-23T11:19:49.907Z,55.74
2019-05-23T11:20:49.823Z,54.46
2019-05-23T11:21:49.814Z,55.10
2019-05-23T11:22:49.781Z,55.56
2019-05-23T11:23:49.776Z,55.27
2019-05-23T11:24:49.761Z,58.65
2019-05-23T11:25:49.720Z,55.49
2019-05-23T11:26:49.683Z,54.69
2019-05-23T11:27:49.728Z,54.40
2019-05-23T11:28:49.658Z,55.56
2019-05-23T11:29:49.611Z,54.53
2019-05-23T11:30:49.589Z,57.84
2019-05-23T11:31:49.561Z,57.26
2019-05-23T11:32:49.566Z,53.49
2019-05-23T11:33:49.528Z,58.35
2019-05-23T11:34:49.514Z,55.45
2019-05-23T11:35:49.467Z,53.13
2019-05-23T11:36:49.458Z,52.91
2019-05-23T11:37:49.423Z,53.39
2019-05-23T11:38:49.382Z,53.20
2019-05-23T11:39:50.699Z,53.03
2019-05-23T11:40:49.370Z,53.52
2019-05-23T11:41:49.355Z,56.25
2019-05-23T11:42:52.525Z,55.19
2019-05-23T11:43:49.265Z,55.83
2019-05-23T11:44:49.256Z,56.13
2019-05-23T11:45:49.219Z,55.16
2019-05-23T11:46:49.206Z,55.52
2019-05-23T11:47:49.248Z,56.96
2019-05-23T11:48:49.198Z,56.61
2019-05-23T11:49:49.142Z,56.45
2019-05-23T11:50:49.160Z,55.71
2019-05-23T11:51:49.140Z,56.84
2019-05-23T11:52:49.099Z,58.51
2019-05-23T11:54:05.958Z,59.38
2019-05-23T11:54:49.184Z,59.67
2019-05-23T11:55:54.031Z,58.00
2019-05-23T11:56:49.542Z,60.31
2019-05-23T11:57:49.030Z,58.94
2019-05-23T11:58:49.024Z,59.83
2019-05-23T11:59:49.888Z,60.03
2019-05-23T12:00:48.923Z,58.64
2019-05-23T12:01:48.956Z,59.34
2019-05-23T12:02:48.839Z,57.05
2019-05-23T12:03:48.800Z,57.05
2019-05-23T12:04:48.779Z,54.61
2019-05-23T12:05:48.747Z,54.41
2019-05-23T12:06:55.528Z,57.60
2019-05-23T12:07:48.852Z,57.21
2019-05-23T12:08:48.725Z,56.95
2019-05-23T12:09:48.633Z,55.74
2019-05-23T12:10:48.725Z,55.35
2019-05-23T12:11:48.626Z,56.22
2019-05-23T12:12:49.402Z,57.84
2019-05-23T12:13:48.549Z,58.03
2019-05-23T12:14:48.527Z,56.87
2019-05-23T12:15:48.497Z,56.87
2019-05-23T12:16:48.496Z,57.67
2019-05-23T12:17:48.872Z,58.95
2019-05-23T12:18:48.446Z,57.19
2019-05-23T12:19:48.405Z,58.28
2019-05-23T12:20:48.427Z,56.80
2019-05-23T12:21:48.391Z,58.35
2019-05-23T12:22:48.351Z,58.61
2019-05-23T12:23:48.334Z,58.75
2019-05-23T12:24:48.284Z,58.77
2019-05-23T12:25:48.272Z,57.04
2019-05-23T12:26:48.250Z,57.26
2019-05-23T12:27:48.326Z,57.77
2019-05-23T12:28:48.181Z,57.96
2019-05-23T12:29:48.176Z,56.90
2019-05-23T12:30:48.194Z,56.90
2019-05-23T12:31:49.575Z,57.38
2019-05-23T12:32:48.098Z,55.55
2019-05-23T12:33:48.088Z,57.38
2019-05-23T12:35:08.459Z,55.93
2019-05-23T12:35:48.043Z,55.23
2019-05-23T12:36:48.064Z,58.42
2019-05-23T12:37:48.029Z,59.48
2019-05-23T12:38:47.955Z,58.64
2019-05-23T12:39:47.959Z,57.87
2019-05-23T12:40:48.048Z,54.77
2019-05-23T12:41:47.900Z,54.87
2019-05-23T12:42:47.909Z,55.67
2019-05-23T12:43:47.835Z,58.02
2019-05-23T12:44:47.800Z,54.15
2019-05-23T12:45:47.907Z,56.83
2019-05-23T12:46:47.769Z,53.74
2019-05-23T12:47:47.730Z,56.93
2019-05-23T12:48:47.699Z,52.39
2019-05-23T12:49:47.684Z,53.42
2019-05-23T12:50:47.701Z,54.39
2019-05-23T12:51:47.650Z,57.19